Time;durP1;ratioP1;P1;durP2;ratioP2;P2;SDS_P1;SDS_P2;PMS_P1;PMS_P2;Temp;Humidity;BMP_temperature;BMP_pressure;BME280_temperature;BME280_humidity;BME280_pressure;Samples;Min_cycle;Max_cycle;Signal;HPM_P1;HPM_P2
2022/03/24 14:47:43;;;;;;;1.63;0.55;;;;;;;18.51;16.47;98974.09;5071240;28;20730;-78
2022/03/24 14:50:08;;;;;;;0.88;0.60;;;;;;;18.30;16.44;98925.69;5070246;28;20033;-78
2022/03/24 14:52:34;;;;;;;0.98;0.60;;;;;;;18.87;15.50;98979.28;5069893;28;20059;-77
2022/03/24 14:54:59;;;;;;;1.80;0.75;;;;;;;18.96;17.25;98986.81;5074052;28;20031;-79
2022/03/24 14:57:24;;;;;;;0.50;0.50;;;;;;;18.53;16.87;98961.19;5069928;28;20088;-77
2022/03/24 14:59:50;;;;;;;1.88;0.57;;;;;;;18.73;15.99;98974.50;5069824;28;20024;-78
2022/03/24 15:02:15;;;;;;;0.57;0.57;;;;;;;18.77;16.90;98993.88;5070283;28;20025;-77
2022/03/24 15:04:41;;;;;;;0.98;0.98;;;;;;;18.79;15.18;98994.19;5069779;28;20361;-74
2022/03/24 15:07:06;;;;;;;1.77;1.02;;;;;;;18.67;15.38;98977.22;5069045;28;20016;-76
2022/03/24 15:09:32;;;;;;;1.25;1.25;;;;;;;18.73;16.60;98984.94;5069191;28;20388;-81
2022/03/24 15:11:57;;;;;;;1.70;1.55;;;;;;;18.72;15.71;98992.56;5068983;28;20487;-78
2022/03/24 15:17:07;;;;;;;0.93;0.93;;;;;;;18.37;17.99;98992.44;5070110;28;20036;-72
2022/03/24 15:19:32;;;;;;;0.98;0.98;;;;;;;18.25;14.92;98965.53;5069080;28;20029;-75
2022/03/24 15:21:58;;;;;;;0.85;0.85;;;;;;;18.40;15.31;98971.91;5069960;28;20043;-73
2022/03/24 15:24:23;;;;;;;3.28;1.77;;;;;;;18.45;15.19;98988.00;5066970;28;20103;-73
2022/03/24 15:26:48;;;;;;;2.50;2.30;;;;;;;18.39;14.93;98981.53;5102372;28;20025;-72
2022/03/24 15:29:14;;;;;;;1.45;1.35;;;;;;;18.36;15.78;98979.72;5068593;28;20464;-72
2022/03/24 15:31:44;;;;;;;0.28;0.28;;;;;;;18.02;14.82;98938.44;5068540;28;20395;-74
2022/03/24 15:34:10;;;;;;;4.35;0.80;;;;;;;18.24;15.17;98977.97;5068435;28;20456;-73
2022/03/24 15:36:35;;;;;;;0.25;0.20;;;;;;;18.22;15.05;98980.47;5068373;28;20048;-74
2022/03/24 15:39:01;;;;;;;0.52;0.52;;;;;;;18.18;14.83;98997.47;5068429;28;20072;-74
2022/03/24 15:41:26;;;;;;;0.20;0.20;;;;;;;17.98;15.10;98958.19;5068302;28;20473;-73
2022/03/24 15:43:52;;;;;;;1.50;1.40;;;;;;;18.08;15.85;98990.41;5068520;28;20021;-73
2022/03/24 15:46:17;;;;;;;1.95;0.80;;;;;;;17.56;14.98;98926.84;5067672;28;20447;-73
2022/03/24 15:48:43;;;;;;;1.00;1.00;;;;;;;17.84;14.94;98976.47;5068009;28;20024;-75
2022/03/24 15:51:10;;;;;;;0.60;0.60;;;;;;;17.75;14.92;98976.56;5067909;28;20035;-74
2022/03/24 15:53:36;;;;;;;0.73;0.73;;;;;;;17.93;14.65;98989.59;5068965;28;20043;-73
2022/03/24 15:56:02;;;;;;;0.70;0.70;;;;;;;17.50;14.80;98937.91;5067703;28;20034;-74
2022/03/24 15:58:27;;;;;;;0.75;0.75;;;;;;;17.62;14.64;98975.25;5057847;28;20052;-74
2022/03/24 16:00:53;;;;;;;1.17;0.93;;;;;;;17.68;15.04;98990.13;5055927;28;20024;-74
2022/03/24 16:03:18;;;;;;;0.80;0.60;;;;;;;17.55;15.34;98983.97;5055946;28;20016;-73
2022/03/24 16:05:44;;;;;;;0.65;0.65;;;;;;;17.36;16.32;98984.09;5055250;28;20049;-75
2022/03/24 16:08:09;;;;;;;1.02;0.93;;;;;;;17.17;15.86;98993.88;5054335;28;20031;-75
2022/03/24 16:10:36;;;;;;;14.25;6.18;;;;;;;16.96;16.36;98978.91;5054890;28;20028;-74
2022/03/24 16:13:01;;;;;;;134.95;72.63;;;;;;;16.96;16.46;98980.94;5054337;28;20024;-73
2022/03/24 16:15:27;;;;;;;29.85;17.38;;;;;;;16.87;16.60;98995.72;5054484;28;20029;-79
2022/03/24 16:17:52;;;;;;;14.98;8.80;;;;;;;16.75;16.48;98987.56;5054809;28;20025;-75
2022/03/24 16:20:19;;;;;;;10.40;9.07;;;;;;;16.65;16.59;98993.16;5054432;28;20459;-73
2022/03/24 16:22:44;;;;;;;6.95;4.97;;;;;;;16.57;17.30;98994.72;5054250;28;20039;-73
2022/03/24 16:25:11;;;;;;;3.35;3.15;;;;;;;16.27;18.12;98992.94;5054122;28;20112;-79
2022/03/24 16:27:37;;;;;;;2.55;2.38;;;;;;;16.04;19.12;99008.28;5054436;28;20025;-78
2022/03/24 16:30:03;;;;;;;2.10;0.98;;;;;;;15.67;19.87;98999.16;5053849;28;20472;-79
2022/03/24 16:32:29;;;;;;;0.57;0.57;;;;;;;15.33;19.86;99002.97;5053568;28;20023;-79
2022/03/24 16:34:54;;;;;;;0.20;0.20;;;;;;;-143.85;100.00;70650.75;5054227;28;20021;-74
2022/03/24 16:37:19;;;;;;;1.50;0.90;;;;;;;-143.85;100.00;70650.75;5054576;28;20029;-74
2022/03/24 16:39:45;;;;;;;0.77;0.68;;;;;;;-143.85;100.00;70650.75;5055078;28;20128;-76
2022/03/24 16:42:11;;;;;;;0.30;0.30;;;;;;;-143.85;100.00;70650.75;5053804;28;20017;-73
2022/03/24 16:44:39;;;;;;;0.35;0.35;;;;;;;-143.85;100.00;70650.75;5058636;28;20021;-74
2022/03/24 16:47:05;;;;;;;1.20;1.20;;;;;;;-143.85;100.00;70650.75;5053565;28;20063;-79
2022/03/24 16:49:30;;;;;;;4.85;4.55;;;;;;;-143.85;100.00;70650.75;5054267;28;20025;-76
2022/03/24 16:51:56;;;;;;;1.77;1.67;;;;;;;-143.85;100.00;70650.75;5053865;28;20028;-75
2022/03/24 16:54:21;;;;;;;3.08;2.90;;;;;;;-143.85;100.00;70650.75;5052676;28;20074;-80
2022/03/24 16:56:47;;;;;;;0.28;0.28;;;;;;;-143.85;100.00;70650.75;5053342;28;20037;-79
2022/03/24 16:59:12;;;;;;;0.55;0.55;;;;;;;-143.85;100.00;70650.75;5053565;28;20067;-78
2022/03/24 17:01:37;;;;;;;1.40;1.00;;;;;;;-143.85;100.00;70650.75;5053345;28;20021;-80
2022/03/24 17:04:04;;;;;;;2.30;1.48;;;;;;;-143.85;100.00;70650.75;5053021;28;20017;-78
2022/03/24 17:06:30;;;;;;;2.40;2.20;;;;;;;-143.85;100.00;70650.75;5052785;28;20537;-79
2022/03/24 17:08:55;;;;;;;3.53;1.25;;;;;;;-143.85;100.00;70650.75;5052409;28;20021;-79
2022/03/24 17:11:21;;;;;;;1.42;1.33;;;;;;;-143.85;100.00;70650.75;5052848;28;20025;-79
2022/03/24 17:13:47;;;;;;;0.32;0.32;;;;;;;-143.85;100.00;70650.75;5052977;28;20066;-75
2022/03/24 17:16:12;;;;;;;0.60;0.60;;;;;;;-143.85;100.00;70650.75;5052739;28;20111;-79
2022/03/24 17:18:41;;;;;;;3.53;2.58;;;;;;;-143.85;100.00;70650.75;5052975;28;20483;-79
2022/03/24 17:21:07;;;;;;;6.05;3.38;;;;;;;-143.85;100.00;70650.75;5052758;28;20032;-79
2022/03/24 17:23:32;;;;;;;5.68;3.88;;;;;;;-143.85;100.00;70650.75;5052872;28;20021;-80
2022/03/24 17:25:58;;;;;;;4.13;2.58;;;;;;;-143.85;100.00;70650.75;5048862;28;20438;-80
2022/03/24 17:28:23;;;;;;;1.20;1.02;;;;;;;-143.85;100.00;70650.75;5040321;28;20568;-79
2022/03/24 17:30:49;;;;;;;0.40;0.40;;;;;;;-143.85;100.00;70650.75;5044421;28;20028;-76
2022/03/24 17:33:15;;;;;;;0.20;0.20;;;;;;;-143.85;100.00;70650.75;5037612;28;20119;-76
2022/03/24 17:35:40;;;;;;;1.00;1.00;;;;;;;-143.85;100.00;70650.75;5032571;28;20082;-79
2022/03/24 17:38:06;;;;;;;1.50;1.40;;;;;;;-143.85;100.00;70650.75;5032216;28;20044;-78
2022/03/24 17:40:32;;;;;;;3.10;1.25;;;;;;;-143.85;100.00;70650.75;5033727;28;20017;-81
2022/03/24 17:42:57;;;;;;;1.45;1.35;;;;;;;-143.85;100.00;70650.75;5036493;28;20031;-79
2022/03/24 17:45:24;;;;;;;1.13;1.10;;;;;;;-143.85;100.00;70650.75;5036355;28;20040;-80
2022/03/24 17:47:51;;;;;;;1.75;1.50;;;;;;;-143.85;100.00;70650.75;5033580;28;20381;-78
2022/03/24 17:50:19;;;;;;;0.30;0.30;;;;;;;-143.85;100.00;70650.75;5032609;28;20026;-77
2022/03/24 17:52:46;;;;;;;6.22;1.98;;;;;;;-143.85;100.00;70650.75;5033218;28;20026;-74
2022/03/24 17:55:12;;;;;;;2.53;2.33;;;;;;;-143.85;100.00;70650.75;5042964;28;20452;-76
2022/03/24 17:57:39;;;;;;;5.07;2.78;;;;;;;-143.85;100.00;70650.75;5052958;28;20078;-78
2022/03/24 18:00:09;;;;;;;2.35;2.20;;;;;;;-143.85;100.00;70650.75;5052325;28;20025;-79
2022/03/24 18:02:35;;;;;;;2.15;1.85;;;;;;;-143.85;100.00;70650.75;5053880;28;20074;-80
2022/03/24 18:05:00;;;;;;;4.45;2.22;;;;;;;-143.85;100.00;70650.75;5052901;28;20028;-76
2022/03/24 18:07:25;;;;;;;0.80;0.80;;;;;;;-143.85;100.00;70650.75;5052353;28;20024;-81
2022/03/24 18:09:51;;;;;;;2.65;2.45;;;;;;;-143.85;100.00;70650.75;5052525;28;20032;-78
2022/03/24 18:12:17;;;;;;;1.73;1.63;;;;;;;-143.85;100.00;70650.75;5052774;28;20048;-80
2022/03/24 18:14:44;;;;;;;2.53;2.33;;;;;;;-143.85;100.00;70650.75;5052916;28;20473;-78
2022/03/24 18:17:10;;;;;;;3.85;3.35;;;;;;;-143.85;100.00;70650.75;5052557;28;20032;-79
2022/03/24 18:19:35;;;;;;;4.07;1.65;;;;;;;-143.85;100.00;70650.75;5052516;28;20021;-74
2022/03/24 18:22:01;;;;;;;1.55;1.45;;;;;;;-143.85;100.00;70650.75;5053463;28;20484;-80
2022/03/24 18:24:27;;;;;;;1.63;1.52;;;;;;;-143.85;100.00;70650.75;5053270;28;20059;-77
2022/03/24 18:26:55;;;;;;;1.50;1.40;;;;;;;-143.85;100.00;70650.75;5051800;28;20025;-79
2022/03/24 18:29:22;;;;;;;0.63;0.63;;;;;;;-143.85;100.00;70650.75;5051728;28;20036;-75
2022/03/24 18:31:49;;;;;;;1.08;1.08;;;;;;;-143.85;100.00;70650.75;5052931;28;20021;-80
2022/03/24 18:34:17;;;;;;;1.13;1.02;;;;;;;-143.85;100.00;70650.75;5051719;28;20063;-79
2022/03/24 18:36:43;;;;;;;;;;;;;;;-143.85;100.00;70650.75;5054111;28;20087;-78
2022/03/24 18:39:08;;;;;;;2.20;2.10;;;;;;;-143.85;100.00;70650.75;5053273;28;19991;-80
2022/03/24 18:41:34;;;;;;;1.17;1.15;;;;;;;-143.85;100.00;70650.75;5052627;28;20082;-79
2022/03/24 18:43:59;;;;;;;0.90;0.90;;;;;;;-143.85;100.00;70650.75;5053325;28;20017;-78
2022/03/24 18:46:25;;;;;;;0.98;0.77;;;;;;;-143.85;100.00;70650.75;5052203;28;20053;-79
2022/03/24 18:48:50;;;;;;;2.20;1.20;;;;;;;-143.85;100.00;70650.75;5051069;28;20020;-81
2022/03/24 18:51:17;;;;;;;0.88;0.73;;;;;;;-143.85;100.00;70650.75;5051974;28;20162;-77
2022/03/24 18:53:42;;;;;;;6.22;0.70;;;;;;;-143.85;100.00;70650.75;5052465;28;20024;-74
2022/03/24 18:56:08;;;;;;;1.75;1.55;;;;;;;-143.85;100.00;70650.75;5051420;28;20032;-73
2022/03/24 18:58:35;;;;;;;3.53;1.60;;;;;;;-143.85;100.00;70650.75;5052479;28;20027;-74
2022/03/24 19:01:03;;;;;;;2.83;1.85;;;;;;;-143.85;100.00;70650.75;5043623;28;20060;-76
2022/03/24 19:03:29;;;;;;;0.65;0.65;;;;;;;-143.85;100.00;70650.75;5044568;28;20492;-80
2022/03/24 19:05:55;;;;;;;3.40;2.17;;;;;;;-143.85;100.00;70650.75;5041133;28;20034;-74
2022/03/24 19:08:20;;;;;;;2.47;1.40;;;;;;;-143.85;100.00;70650.75;5032679;28;20017;-76
2022/03/24 19:10:48;;;;;;;1.73;1.63;;;;;;;-143.85;100.00;70650.75;5036935;28;20039;-74
2022/03/24 19:13:15;;;;;;;0.88;0.80;;;;;;;-143.85;100.00;70650.75;5032769;28;20013;-78
2022/03/24 19:15:41;;;;;;;2.47;2.22;;;;;;;-143.85;100.00;70650.75;5032434;28;20028;-74
2022/03/24 19:18:10;;;;;;;2.97;1.77;;;;;;;-143.85;100.00;70650.75;5032185;28;20022;-77
2022/03/24 19:20:35;;;;;;;0.75;0.75;;;;;;;-143.85;100.00;70650.75;5032343;28;20053;-78
2022/03/24 19:23:01;;;;;;;1.00;0.90;;;;;;;-143.85;100.00;70650.75;5031467;28;20118;-77
2022/03/24 19:25:27;;;;;;;0.45;0.45;;;;;;;-143.85;100.00;70650.75;5031796;28;20108;-74
2022/03/24 19:27:57;;;;;;;0.50;0.50;;;;;;;-143.85;100.00;70650.75;5031758;28;20083;-79
2022/03/24 19:30:24;;;;;;;1.10;1.10;;;;;;;-143.85;100.00;70650.75;5031077;28;20381;-76
2022/03/24 19:32:50;;;;;;;0.32;0.32;;;;;;;-143.85;100.00;70650.75;5032577;28;20022;-75
2022/03/24 19:35:16;;;;;;;1.05;1.05;;;;;;;-143.85;100.00;70650.75;5035652;28;20029;-79
2022/03/24 19:37:42;;;;;;;0.65;0.65;;;;;;;-143.85;100.00;70650.75;5035192;28;20028;-78
2022/03/24 19:40:08;;;;;;;0.65;0.60;;;;;;;-143.85;100.00;70650.75;5034819;28;20025;-81
2022/03/24 19:42:33;;;;;;;0.68;0.68;;;;;;;-143.85;100.00;70650.75;5035099;28;20025;-80
2022/03/24 19:44:59;;;;;;;0.93;0.88;;;;;;;-143.85;100.00;70650.75;5035576;28;20022;-81
2022/03/24 19:47:25;;;;;;;0.65;0.65;;;;;;;-143.85;100.00;70650.75;5034266;28;20102;-76
2022/03/24 19:49:52;;;;;;;0.82;0.82;;;;;;;-143.85;100.00;70650.75;5051543;28;20032;-77
2022/03/24 19:52:17;;;;;;;2.92;1.48;;;;;;;-143.85;100.00;70650.75;5042686;28;20025;-74
2022/03/24 19:54:43;;;;;;;1.42;1.33;;;;;;;-143.85;100.00;70650.75;5034701;28;20029;-79
2022/03/24 19:57:10;;;;;;;7.53;1.65;;;;;;;-143.85;100.00;70650.75;5034794;28;20036;-76
2022/03/24 19:59:36;;;;;;;1.65;1.40;;;;;;;-143.85;100.00;70650.75;5034476;28;20029;-75
2022/03/24 20:02:02;;;;;;;9.77;3.15;;;;;;;-143.85;100.00;70650.75;5034740;28;20116;-79
2022/03/24 20:04:29;;;;;;;5.90;0.85;;;;;;;-143.85;100.00;70650.75;5034538;28;20500;-77
2022/03/24 20:06:56;;;;;;;0.77;0.77;;;;;;;-143.85;100.00;70650.75;5035533;28;20029;-78
2022/03/24 20:09:21;;;;;;;6.22;1.75;;;;;;;-143.85;100.00;70650.75;5034920;28;20036;-78
2022/03/24 20:11:47;;;;;;;2.08;1.92;;;;;;;-143.85;100.00;70650.75;5036083;28;20018;-75
2022/03/24 20:14:12;;;;;;;2.05;1.45;;;;;;;-143.85;100.00;70650.75;5035799;28;20104;-78
2022/03/24 20:16:38;;;;;;;1.08;1.08;;;;;;;-143.85;100.00;70650.75;5034468;28;20072;-79
2022/03/24 20:19:03;;;;;;;2.10;2.00;;;;;;;-143.85;100.00;70650.75;5034651;28;20023;-78
2022/03/24 20:21:28;;;;;;;1.17;1.05;;;;;;;-143.85;100.00;70650.75;5034397;28;20040;-75
2022/03/24 20:23:54;;;;;;;3.85;2.60;;;;;;;-143.85;100.00;70650.75;5034327;28;20037;-80
2022/03/24 20:26:24;;;;;;;1.02;1.02;;;;;;;-143.85;100.00;70650.75;5034295;28;20025;-80
2022/03/24 20:28:50;;;;;;;1.35;0.88;;;;;;;-143.85;100.00;70650.75;5034504;28;20388;-76
2022/03/24 20:31:16;;;;;;;2.65;2.55;;;;;;;-143.85;100.00;70650.75;5034209;28;20029;-79
2022/03/24 20:33:41;;;;;;;2.03;1.85;;;;;;;-143.85;100.00;70650.75;5035258;28;20148;-76
2022/03/24 20:36:08;;;;;;;2.53;2.33;;;;;;;-143.85;100.00;70650.75;5034086;28;20040;-74
2022/03/24 20:38:34;;;;;;;5.53;2.88;;;;;;;-143.85;100.00;70650.75;5034183;28;20056;-80
2022/03/24 20:41:00;;;;;;;3.60;2.25;;;;;;;-143.85;100.00;70650.75;5034285;28;20445;-77
2022/03/24 20:43:26;;;;;;;3.25;2.42;;;;;;;-143.85;100.00;70650.75;5035131;28;20071;-79
2022/03/24 20:45:51;;;;;;;4.70;2.53;;;;;;;-143.85;100.00;70650.75;5033292;28;20485;-77
2022/03/24 20:48:17;;;;;;;3.20;2.45;;;;;;;-143.85;100.00;70650.75;5033741;28;20017;-79
2022/03/24 20:50:43;;;;;;;10.55;3.22;;;;;;;-143.85;100.00;70650.75;5033962;28;20482;-81
2022/03/24 20:53:09;;;;;;;4.93;1.92;;;;;;;-143.85;100.00;70650.75;5033999;28;20056;-78
2022/03/24 20:55:36;;;;;;;1.95;1.85;;;;;;;-143.85;100.00;70650.75;5033903;28;20116;-81
2022/03/24 20:58:03;;;;;;;1.30;1.23;;;;;;;-143.85;100.00;70650.75;5033908;28;20021;-75
2022/03/24 21:00:29;;;;;;;1.65;1.55;;;;;;;-143.85;100.00;70650.75;5033419;28;20044;-81
2022/03/24 21:02:56;;;;;;;3.78;3.42;;;;;;;-143.85;100.00;70650.75;5033734;28;20488;-78
2022/03/24 21:05:23;;;;;;;2.28;2.13;;;;;;;-143.85;100.00;70650.75;5033698;28;20112;-80
2022/03/24 21:07:49;;;;;;;2.67;1.70;;;;;;;-143.85;100.00;70650.75;5033579;28;20029;-80
2022/03/24 21:10:15;;;;;;;0.80;0.80;;;;;;;-143.85;100.00;70650.75;5033369;28;20037;-81
2022/03/24 21:12:40;;;;;;;4.13;1.75;;;;;;;-143.85;100.00;70650.75;5033619;28;20060;-81
2022/03/24 21:15:07;;;;;;;2.42;2.22;;;;;;;-143.85;100.00;70650.75;5033380;28;20107;-79
2022/03/24 21:17:33;;;;;;;2.45;2.22;;;;;;;-143.85;100.00;70650.75;5033332;28;20025;-80
2022/03/24 21:19:58;;;;;;;4.40;1.83;;;;;;;-143.85;100.00;70650.75;5033288;28;20028;-76
2022/03/24 21:22:24;;;;;;;2.70;2.45;;;;;;;-143.85;100.00;70650.75;5032597;28;20025;-76
2022/03/24 21:24:50;;;;;;;1.17;1.10;;;;;;;-143.85;100.00;70650.75;5033309;28;20072;-80
2022/03/24 21:27:15;;;;;;;4.18;1.05;;;;;;;-143.85;100.00;70650.75;5034147;28;20044;-79
2022/03/24 21:29:41;;;;;;;2.67;1.13;;;;;;;-143.85;100.00;70650.75;5032833;28;20025;-79
2022/03/24 21:32:08;;;;;;;3.83;2.17;;;;;;;-143.85;100.00;70650.75;5033031;28;20385;-80
2022/03/24 21:34:35;;;;;;;1.17;1.17;;;;;;;-143.85;100.00;70650.75;5033168;28;20025;-81
2022/03/24 21:37:01;;;;;;;4.10;1.80;;;;;;;-143.85;100.00;70650.75;5032752;28;20469;-79
2022/03/24 21:39:27;;;;;;;1.58;1.48;;;;;;;-143.85;100.00;70650.75;5033187;28;20041;-79
2022/03/24 21:41:52;;;;;;;1.65;1.00;;;;;;;-143.85;100.00;70650.75;5032913;28;20025;-81
2022/03/24 21:44:19;;;;;;;0.57;0.57;;;;;;;-143.85;100.00;70650.75;5032854;28;20524;-80
2022/03/24 21:46:50;;;;;;;2.95;2.65;;;;;;;-143.85;100.00;70650.75;5032654;28;20501;-79
2022/03/24 21:49:16;;;;;;;1.10;1.02;;;;;;;-143.85;100.00;70650.75;5033018;28;20113;-80
2022/03/24 21:51:41;;;;;;;2.35;1.92;;;;;;;-143.85;100.00;70650.75;5032824;28;20509;-79
2022/03/24 21:54:07;;;;;;;2.03;1.90;;;;;;;-143.85;100.00;70650.75;5032733;28;20017;-79
2022/03/24 21:56:33;;;;;;;0.90;0.80;;;;;;;-143.85;100.00;70650.75;5032080;28;20091;-80
2022/03/24 21:58:59;;;;;;;1.88;1.38;;;;;;;-143.85;100.00;70650.75;5032546;28;20029;-80
2022/03/24 22:01:24;;;;;;;3.20;1.08;;;;;;;-143.85;100.00;70650.75;5032646;28;20032;-80
2022/03/24 22:03:49;;;;;;;1.67;1.58;;;;;;;-143.85;100.00;70650.75;5032466;28;20014;-79
2022/03/24 22:06:15;;;;;;;0.90;0.90;;;;;;;-143.85;100.00;70650.75;5032527;28;20035;-80
2022/03/24 22:08:40;;;;;;;0.95;0.90;;;;;;;-143.85;100.00;70650.75;5033304;28;20017;-79
2022/03/24 22:11:06;;;;;;;1.23;1.15;;;;;;;-143.85;100.00;70650.75;5032289;28;20029;-80
2022/03/24 22:13:32;;;;;;;1.67;1.42;;;;;;;-143.85;100.00;70650.75;5032482;28;20021;-80
2022/03/24 22:15:58;;;;;;;2.40;2.20;;;;;;;-143.85;100.00;70650.75;5032323;28;20461;-80
2022/03/24 22:18:24;;;;;;;1.73;1.60;;;;;;;-143.85;100.00;70650.75;5033559;28;20040;-80
2022/03/24 22:20:49;;;;;;;1.35;1.27;;;;;;;-143.85;100.00;70650.75;5032353;28;20453;-80
2022/03/24 22:23:15;;;;;;;0.57;0.57;;;;;;;-143.85;100.00;70650.75;5032659;28;20032;-79
2022/03/24 22:25:40;;;;;;;1.35;1.25;;;;;;;-143.85;100.00;70650.75;5033032;28;20049;-80
2022/03/24 22:28:07;;;;;;;1.08;0.98;;;;;;;-143.85;100.00;70650.75;5032145;28;20037;-79
2022/03/24 22:30:33;;;;;;;0.98;0.98;;;;;;;-143.85;100.00;70650.75;5031710;28;20053;-79
2022/03/24 22:32:58;;;;;;;0.30;0.30;;;;;;;-143.85;100.00;70650.75;5032228;28;20107;-80
2022/03/24 22:35:24;;;;;;;1.35;1.15;;;;;;;-143.85;100.00;70650.75;5033295;28;20036;-79
2022/03/24 22:37:49;;;;;;;2.60;1.45;;;;;;;-143.85;100.00;70650.75;5032313;28;20104;-80
2022/03/24 22:40:15;;;;;;;0.65;0.65;;;;;;;-143.85;100.00;70650.75;5032487;28;20017;-79
2022/03/24 22:42:41;;;;;;;1.23;1.23;;;;;;;-143.85;100.00;70650.75;5032246;28;20022;-80
2022/03/24 22:45:07;;;;;;;0.65;0.65;;;;;;;-143.85;100.00;70650.75;5031913;28;20018;-80
2022/03/24 22:47:32;;;;;;;1.10;1.10;;;;;;;-143.85;100.00;70650.75;5031713;28;20095;-78
2022/03/24 22:49:58;;;;;;;0.70;0.70;;;;;;;-143.85;100.00;70650.75;5032006;28;20025;-78
2022/03/24 22:52:24;;;;;;;0.63;0.63;;;;;;;-143.85;100.00;70650.75;5032956;28;20469;-76
2022/03/24 22:54:49;;;;;;;1.20;1.05;;;;;;;-143.85;100.00;70650.75;5034078;28;20021;-76
2022/03/24 22:57:15;;;;;;;2.08;1.80;;;;;;;-143.85;100.00;70650.75;5031978;28;20453;-79
2022/03/24 22:59:40;;;;;;;0.32;0.32;;;;;;;-143.85;100.00;70650.75;5032327;28;20462;-80
2022/03/24 23:02:06;;;;;;;1.15;1.15;;;;;;;-143.85;100.00;70650.75;5032007;28;20022;-79
2022/03/24 23:04:31;;;;;;;1.52;1.42;;;;;;;-143.85;100.00;70650.75;5032586;28;20025;-81
2022/03/24 23:06:57;;;;;;;0.85;0.85;;;;;;;-143.85;100.00;70650.75;5031904;28;20093;-80
2022/03/24 23:09:22;;;;;;;1.48;1.10;;;;;;;-143.85;100.00;70650.75;5036722;28;20497;-79
2022/03/24 23:11:48;;;;;;;4.18;2.15;;;;;;;-143.85;100.00;70650.75;5035917;28;20053;-79
2022/03/24 23:14:13;;;;;;;0.50;0.50;;;;;;;-143.85;100.00;70650.75;5035750;28;20017;-79
2022/03/24 23:16:39;;;;;;;0.85;0.75;;;;;;;-143.85;100.00;70650.75;5035913;28;20384;-80
2022/03/24 23:19:06;;;;;;;1.35;1.30;;;;;;;-143.85;100.00;70650.75;5035731;28;20112;-81
2022/03/24 23:21:32;;;;;;;0.73;0.73;;;;;;;-143.85;100.00;70650.75;5035635;28;20096;-79
2022/03/24 23:23:58;;;;;;;1.00;0.75;;;;;;;-143.85;100.00;70650.75;5035533;28;20021;-79
2022/03/24 23:26:25;;;;;;;0.88;0.88;;;;;;;-143.85;100.00;70650.75;5035800;28;20017;-77
2022/03/24 23:28:51;;;;;;;2.25;2.05;;;;;;;-143.85;100.00;70650.75;5035329;28;20029;-80
2022/03/24 23:31:16;;;;;;;0.45;0.45;;;;;;;-143.85;100.00;70650.75;5035380;28;20033;-79
2022/03/24 23:33:42;;;;;;;11.23;2.00;;;;;;;-143.85;100.00;70650.75;5035450;28;20056;-79
2022/03/24 23:36:11;;;;;;;15.52;1.48;;;;;;;-143.85;100.00;70650.75;5035380;28;20473;-80
2022/03/24 23:38:37;;;;;;;2.25;1.30;;;;;;;-143.85;100.00;70650.75;5035231;28;20033;-80
2022/03/24 23:41:02;;;;;;;0.68;0.68;;;;;;;-143.85;100.00;70650.75;5035177;28;20026;-79
2022/03/24 23:43:29;;;;;;;1.50;1.42;;;;;;;-143.85;100.00;70650.75;5035100;28;20020;-81
2022/03/24 23:45:54;;;;;;;1.25;1.20;;;;;;;-143.85;100.00;70650.75;5034738;28;20049;-81
2022/03/24 23:48:20;;;;;;;0.60;0.60;;;;;;;-143.85;100.00;70650.75;5036339;28;20385;-80
2022/03/24 23:50:45;;;;;;;1.23;1.23;;;;;;;-143.85;100.00;70650.75;5034896;28;20083;-79
2022/03/24 23:53:11;;;;;;;1.35;1.30;;;;;;;-143.85;100.00;70650.75;5035223;28;20021;-80
2022/03/24 23:55:36;;;;;;;1.00;1.00;;;;;;;-143.85;100.00;70650.75;5034874;28;20028;-80
2022/03/24 23:58:02;;;;;;;0.93;0.93;;;;;;;-143.85;100.00;70650.75;5034755;28;20017;-79
